createdAt,value
2023-01-18T00:01:30.784Z,12.61
2023-01-18T00:03:58.138Z,12.63
2023-01-18T00:06:27.964Z,12.67
2023-01-18T00:08:55.555Z,12.72
2023-01-18T00:11:57.224Z,12.70
2023-01-18T00:14:24.349Z,12.75
2023-01-18T00:16:51.494Z,12.74
2023-01-18T00:19:28.161Z,12.68
2023-01-18T00:22:03.304Z,12.71
2023-01-18T00:24:33.236Z,12.68
2023-01-18T00:27:00.399Z,12.70
2023-01-18T00:29:27.642Z,12.62
2023-01-18T00:31:55.594Z,12.62
2023-01-18T00:34:30.717Z,12.62
2023-01-18T00:36:57.922Z,12.61
2023-01-18T00:39:25.945Z,12.71
2023-01-18T00:42:13.892Z,12.70
2023-01-18T00:44:53.627Z,12.71
2023-01-18T00:47:20.805Z,12.68
2023-01-18T00:49:48.031Z,12.70
2023-01-18T00:52:16.343Z,12.70
2023-01-18T00:54:43.452Z,12.73
2023-01-18T00:57:10.503Z,12.69
2023-01-18T00:59:37.711Z,12.68
2023-01-18T01:02:05.022Z,12.69
2023-01-18T01:04:50.955Z,12.78
2023-01-18T01:07:18.037Z,12.79
2023-01-18T01:09:45.868Z,12.75
2023-01-18T01:12:31.192Z,12.75
2023-01-18T01:15:16.849Z,12.69
2023-01-18T01:18:02.817Z,12.69
2023-01-18T01:20:48.295Z,12.72
2023-01-18T01:23:39.303Z,12.70
2023-01-18T01:26:13.719Z,12.70
2023-01-18T01:28:43.128Z,12.62
2023-01-18T01:31:14.523Z,12.58
2023-01-18T01:33:41.960Z,12.62
2023-01-18T01:36:14.069Z,12.74
2023-01-18T01:38:44.596Z,12.73
2023-01-18T01:41:18.109Z,12.77
2023-01-18T01:43:46.824Z,12.75
2023-01-18T01:46:40.293Z,12.78
2023-01-18T01:49:15.411Z,12.77
2023-01-18T01:51:44.561Z,12.82
2023-01-18T01:54:29.649Z,12.81
2023-01-18T01:57:06.211Z,12.80
2023-01-18T01:59:37.826Z,12.80
2023-01-18T02:02:05.499Z,12.84
2023-01-18T02:04:33.789Z,12.88
2023-01-18T02:07:03.466Z,12.79
2023-01-18T02:09:32.984Z,12.83
2023-01-18T02:12:03.729Z,12.80
2023-01-18T02:14:34.813Z,12.75
2023-01-18T02:17:37.150Z,12.78
2023-01-18T02:20:30.298Z,12.73
2023-01-18T02:23:31.631Z,12.81
2023-01-18T02:26:31.403Z,12.78
2023-01-18T02:29:25.570Z,12.83
2023-01-18T02:32:11.257Z,12.82
2023-01-18T02:34:49.277Z,12.78
2023-01-18T02:37:53.365Z,12.84
2023-01-18T02:40:58.788Z,12.87
2023-01-18T02:43:44.994Z,12.87
2023-01-18T02:46:32.891Z,12.89
2023-01-18T02:49:19.684Z,12.87
2023-01-18T02:51:46.621Z,12.88
2023-01-18T02:54:27.273Z,12.86
2023-01-18T02:56:55.560Z,12.85
2023-01-18T02:59:36.422Z,12.82
2023-01-18T03:02:07.728Z,12.85
2023-01-18T03:04:38.930Z,12.88
2023-01-18T03:07:11.930Z,12.89
2023-01-18T03:09:42.292Z,12.95
2023-01-18T03:12:19.331Z,12.95
2023-01-18T03:14:57.500Z,13.00
2023-01-18T03:17:42.286Z,13.06
2023-01-18T03:20:16.233Z,13.11
2023-01-18T03:23:09.118Z,13.06
2023-01-18T03:25:45.062Z,12.98
2023-01-18T03:28:35.505Z,13.02
2023-01-18T03:31:25.202Z,12.98
2023-01-18T03:34:06.551Z,12.96
2023-01-18T03:36:36.253Z,13.05
2023-01-18T03:39:10.850Z,13.10
2023-01-18T03:41:41.659Z,13.04
2023-01-18T03:44:32.227Z,13.06
2023-01-18T03:46:59.277Z,13.07
2023-01-18T03:49:27.815Z,13.11
2023-01-18T03:52:16.722Z,13.08
2023-01-18T03:54:48.067Z,13.11
2023-01-18T03:57:36.043Z,13.08
2023-01-18T04:00:06.196Z,13.15
2023-01-18T04:02:41.337Z,13.15
2023-01-18T04:05:09.054Z,13.10
2023-01-18T04:07:39.254Z,13.06
2023-01-18T04:10:08.765Z,13.01
2023-01-18T04:12:35.903Z,13.00
2023-01-18T04:15:03.776Z,13.00
2023-01-18T04:17:32.977Z,12.99
2023-01-18T04:20:00.221Z,12.98
2023-01-18T04:22:31.190Z,12.99
2023-01-18T04:25:36.303Z,12.98
2023-01-18T04:28:02.039Z,12.98
2023-01-18T04:30:29.268Z,13.03
2023-01-18T04:32:56.760Z,13.06
2023-01-18T04:35:24.474Z,13.08
2023-01-18T04:37:54.319Z,13.16
2023-01-18T04:40:21.490Z,13.15
2023-01-18T04:42:56.535Z,13.12
2023-01-18T04:45:23.897Z,13.19
2023-01-18T04:47:52.337Z,13.15
2023-01-18T04:50:19.484Z,13.15
2023-01-18T04:52:46.627Z,13.15
2023-01-18T04:55:16.231Z,13.20
2023-01-18T04:57:46.500Z,13.20
2023-01-18T05:00:16.627Z,13.24
2023-01-18T05:02:43.982Z,13.21
2023-01-18T05:05:11.201Z,13.21
2023-01-18T05:07:38.278Z,13.28
2023-01-18T05:10:05.975Z,13.25
2023-01-18T05:12:33.310Z,13.20
2023-01-18T05:15:00.427Z,13.27
2023-01-18T05:17:36.895Z,13.24
2023-01-18T05:20:08.338Z,13.26
2023-01-18T05:22:37.481Z,13.41
2023-01-18T05:25:05.545Z,13.31
2023-01-18T05:27:33.424Z,13.30
2023-01-18T05:30:04.722Z,13.30
2023-01-18T05:32:32.889Z,13.32
2023-01-18T05:35:00.309Z,13.33
2023-01-18T05:37:30.559Z,13.33
2023-01-18T05:39:57.818Z,13.34
2023-01-18T05:42:25.028Z,13.38
2023-01-18T05:44:56.369Z,13.41
2023-01-18T05:47:23.299Z,13.49
2023-01-18T05:49:52.583Z,13.48
2023-01-18T05:52:22.265Z,13.55
2023-01-18T05:54:49.281Z,13.53
2023-01-18T05:57:19.520Z,13.50
2023-01-18T05:59:46.814Z,13.50
2023-01-18T06:02:14.049Z,13.44
2023-01-18T06:04:41.353Z,13.44
2023-01-18T06:07:09.408Z,13.42
2023-01-18T06:09:42.967Z,13.44
2023-01-18T06:12:10.616Z,13.44
2023-01-18T06:14:39.839Z,13.43
2023-01-18T06:17:11.907Z,13.42
2023-01-18T06:19:39.060Z,13.39
2023-01-18T06:22:06.111Z,13.46
2023-01-18T06:24:33.459Z,13.37
2023-01-18T06:27:04.343Z,13.33
2023-01-18T06:29:36.614Z,13.31
2023-01-18T06:32:03.827Z,13.37
2023-01-18T06:34:34.161Z,13.40
2023-01-18T06:37:01.247Z,13.38
2023-01-18T06:39:28.478Z,13.38
2023-01-18T06:41:55.547Z,13.31
2023-01-18T06:44:22.598Z,13.29
2023-01-18T06:46:50.911Z,13.30
2023-01-18T06:49:23.209Z,13.29
2023-01-18T06:51:53.198Z,13.32
2023-01-18T06:54:20.272Z,13.34
2023-01-18T06:56:48.456Z,13.37
2023-01-18T06:59:19.529Z,13.36
2023-01-18T07:01:48.821Z,13.39
2023-01-18T07:04:16.146Z,13.41
2023-01-18T07:06:43.208Z,13.40
2023-01-18T07:09:13.772Z,13.46
2023-01-18T07:11:43.453Z,13.48
2023-01-18T07:14:13.481Z,13.53
2023-01-18T07:16:59.117Z,13.57
2023-01-18T07:19:26.481Z,13.72
2023-01-18T07:21:58.877Z,13.78
2023-01-18T07:24:33.578Z,13.79
2023-01-18T07:27:03.467Z,13.85
2023-01-18T07:29:31.214Z,13.94
2023-01-18T07:31:58.595Z,13.99
2023-01-18T07:34:25.558Z,14.04
2023-01-18T07:36:52.870Z,14.17
2023-01-18T07:39:22.661Z,14.37
2023-01-18T07:41:49.896Z,14.69
2023-01-18T07:44:26.575Z,14.76
2023-01-18T07:46:53.701Z,14.64
2023-01-18T07:49:23.876Z,14.53
2023-01-18T07:51:53.875Z,14.83
2023-01-18T07:54:20.800Z,15.34
2023-01-18T07:56:47.724Z,15.45
2023-01-18T07:59:16.130Z,15.51
2023-01-18T08:01:44.962Z,15.42
2023-01-18T08:04:12.209Z,15.52
2023-01-18T08:06:39.215Z,15.38
2023-01-18T08:09:06.916Z,15.49
2023-01-18T08:11:35.908Z,15.60
2023-01-18T08:14:05.703Z,15.38
2023-01-18T08:16:33.114Z,15.25
2023-01-18T08:19:03.930Z,15.69
2023-01-18T08:21:32.126Z,16.06
2023-01-18T08:23:59.084Z,16.36
2023-01-18T08:26:26.187Z,16.14
2023-01-18T08:28:53.268Z,16.43
2023-01-18T08:31:21.571Z,16.69
2023-01-18T08:33:50.073Z,16.72
2023-01-18T08:36:20.445Z,16.75
2023-01-18T08:38:53.678Z,16.71
2023-01-18T08:41:28.711Z,16.22
2023-01-18T08:43:59.899Z,15.60
2023-01-18T08:46:27.197Z,15.60
2023-01-18T08:49:01.829Z,15.43
2023-01-18T08:51:30.161Z,15.51
2023-01-18T08:54:00.097Z,15.63
2023-01-18T08:56:27.596Z,15.40
2023-01-18T08:58:54.872Z,15.65
2023-01-18T09:01:27.267Z,15.71
2023-01-18T09:03:56.018Z,15.98
2023-01-18T09:06:23.487Z,16.53
2023-01-18T09:08:58.592Z,16.99
2023-01-18T09:11:26.346Z,17.32
2023-01-18T09:14:01.084Z,17.33
2023-01-18T09:16:29.746Z,17.51
2023-01-18T09:18:57.688Z,17.73
2023-01-18T09:21:28.769Z,18.06
2023-01-18T09:23:59.821Z,18.17
2023-01-18T09:26:28.018Z,18.25
2023-01-18T09:28:55.136Z,17.70
2023-01-18T09:31:27.866Z,17.84
2023-01-18T09:34:17.956Z,18.66
2023-01-18T09:36:58.361Z,18.97
2023-01-18T09:39:28.386Z,18.34
2023-01-18T09:41:57.337Z,18.57
2023-01-18T09:44:29.692Z,18.26
2023-01-18T09:47:01.537Z,18.26
2023-01-18T09:50:01.160Z,17.52
2023-01-18T09:53:09.788Z,17.82
2023-01-18T09:55:59.797Z,18.93
2023-01-18T09:58:52.368Z,19.24
2023-01-18T10:01:22.863Z,19.28
2023-01-18T10:03:58.882Z,18.53
2023-01-18T10:06:30.732Z,18.66
2023-01-18T10:09:03.158Z,18.76
2023-01-18T10:11:45.031Z,18.90
2023-01-18T10:14:24.588Z,19.31
2023-01-18T10:16:59.933Z,19.13
2023-01-18T10:19:31.838Z,18.74
2023-01-18T10:22:29.467Z,19.24
2023-01-18T10:25:02.500Z,18.30
2023-01-18T10:27:38.337Z,18.82
2023-01-18T10:30:40.925Z,18.54
2023-01-18T10:33:23.192Z,18.32
2023-01-18T10:35:57.123Z,18.71
2023-01-18T10:38:26.399Z,18.67
2023-01-18T10:41:01.600Z,18.61
2023-01-18T10:43:31.214Z,18.84
2023-01-18T10:46:02.590Z,18.61
2023-01-18T10:48:35.482Z,18.54
2023-01-18T10:51:12.972Z,18.26
2023-01-18T10:53:41.316Z,17.50
2023-01-18T10:56:14.472Z,17.54
2023-01-18T10:59:03.172Z,17.74
2023-01-18T11:01:36.250Z,17.75
2023-01-18T11:04:08.366Z,18.13
2023-01-18T11:06:56.593Z,17.97
2023-01-18T11:09:46.378Z,17.41
2023-01-18T11:12:41.262Z,17.29
2023-01-18T11:15:14.464Z,16.95
2023-01-18T11:17:47.338Z,16.85
2023-01-18T11:20:23.413Z,16.60
2023-01-18T11:22:59.187Z,16.80
2023-01-18T11:25:27.830Z,16.86
2023-01-18T11:28:04.866Z,16.94
2023-01-18T11:30:35.813Z,16.89
2023-01-18T11:33:04.025Z,17.37
2023-01-18T11:35:36.665Z,17.36
2023-01-18T11:38:10.892Z,17.33
2023-01-18T11:40:39.335Z,17.38
2023-01-18T11:43:24.839Z,17.34
2023-01-18T11:45:59.607Z,17.32
2023-01-18T11:48:30.768Z,17.18
2023-01-18T11:51:01.567Z,17.14
2023-01-18T11:53:51.664Z,17.06
2023-01-18T11:56:33.156Z,17.06
2023-01-18T11:59:01.273Z,17.15
2023-01-18T12:01:37.578Z,17.09
2023-01-18T12:04:12.115Z,16.89
2023-01-18T12:06:41.887Z,17.13
2023-01-18T12:09:34.991Z,17.20
2023-01-18T12:12:19.285Z,17.06
2023-01-18T12:14:49.599Z,17.11
2023-01-18T12:17:36.876Z,17.23
2023-01-18T12:20:08.719Z,17.24
2023-01-18T12:22:54.390Z,17.18
2023-01-18T12:26:10.625Z,16.71
2023-01-18T12:29:14.305Z,15.92
2023-01-18T12:32:06.336Z,15.57
2023-01-18T12:34:54.254Z,15.39
2023-01-18T12:37:27.438Z,15.53
2023-01-18T12:40:38.953Z,15.67
2023-01-18T12:43:06.421Z,15.74
2023-01-18T12:45:36.032Z,15.86
2023-01-18T12:48:14.767Z,15.74
2023-01-18T12:50:43.960Z,15.35
2023-01-18T12:53:15.338Z,15.30
2023-01-18T12:55:47.484Z,15.16
2023-01-18T12:58:19.803Z,14.99
2023-01-18T13:00:56.380Z,14.78
2023-01-18T13:03:28.891Z,14.62
2023-01-18T13:06:04.254Z,14.53
2023-01-18T13:08:52.876Z,14.44
2023-01-18T13:11:23.831Z,14.31
2023-01-18T13:13:55.888Z,14.28
2023-01-18T13:16:58.560Z,14.23
2023-01-18T13:20:00.491Z,14.16
2023-01-18T13:22:43.550Z,14.18
2023-01-18T13:25:26.637Z,14.17
2023-01-18T13:28:04.164Z,14.19
2023-01-18T13:30:33.534Z,14.19
2023-01-18T13:33:02.494Z,14.20
2023-01-18T13:35:38.660Z,14.21
2023-01-18T13:38:13.176Z,14.26
2023-01-18T13:40:42.883Z,14.24
2023-01-18T13:43:36.277Z,14.29
2023-01-18T13:46:08.385Z,14.31
2023-01-18T13:49:02.705Z,14.32
2023-01-18T13:51:37.158Z,14.30
2023-01-18T13:54:04.700Z,14.37
2023-01-18T13:56:36.833Z,14.39
2023-01-18T13:59:12.766Z,14.39
2023-01-18T14:01:43.212Z,14.43
2023-01-18T14:04:19.389Z,14.45
2023-01-18T14:06:46.980Z,14.47
2023-01-18T14:09:16.184Z,14.48
2023-01-18T14:11:51.380Z,14.51
2023-01-18T14:14:18.488Z,14.48
2023-01-18T14:17:04.748Z,14.50
2023-01-18T14:19:39.630Z,14.47
2023-01-18T14:22:28.457Z,14.45
2023-01-18T14:25:33.870Z,14.43
2023-01-18T14:28:13.876Z,14.38
2023-01-18T14:30:41.654Z,14.42
2023-01-18T14:33:27.263Z,14.37
2023-01-18T14:35:58.596Z,14.43
2023-01-18T14:38:26.058Z,14.41
2023-01-18T14:40:56.175Z,14.43
2023-01-18T14:43:32.279Z,14.43
2023-01-18T14:46:17.145Z,14.39
2023-01-18T14:48:54.359Z,14.38
2023-01-18T14:51:23.979Z,14.37
2023-01-18T14:54:00.554Z,14.36
2023-01-18T14:56:33.425Z,14.36
2023-01-18T14:59:05.430Z,14.36
2023-01-18T15:01:42.286Z,14.36
2023-01-18T15:04:21.009Z,14.41
2023-01-18T15:06:52.116Z,14.44
2023-01-18T15:09:21.462Z,14.44
2023-01-18T15:11:49.604Z,14.40
2023-01-18T15:14:28.261Z,14.37
2023-01-18T15:16:56.396Z,14.35
2023-01-18T15:19:36.581Z,14.36
2023-01-18T15:22:08.491Z,14.34
2023-01-18T15:24:40.904Z,14.37
2023-01-18T15:27:16.325Z,14.36
2023-01-18T15:29:48.709Z,14.35
2023-01-18T15:32:20.980Z,14.31
2023-01-18T15:34:54.524Z,14.30
2023-01-18T15:37:32.481Z,14.33
2023-01-18T15:40:07.058Z,14.28
2023-01-18T15:42:47.160Z,14.24
2023-01-18T15:45:22.174Z,14.21
2023-01-18T15:47:57.727Z,14.27
2023-01-18T15:50:31.905Z,14.24
2023-01-18T15:53:14.462Z,14.21
2023-01-18T15:55:47.118Z,14.19
2023-01-18T15:58:37.454Z,14.14
2023-01-18T16:01:18.404Z,14.18
2023-01-18T16:03:48.371Z,14.17
2023-01-18T16:06:34.437Z,14.09
2023-01-18T16:09:12.806Z,14.07
2023-01-18T16:11:48.667Z,14.11
2023-01-18T16:14:27.963Z,14.14
2023-01-18T16:16:59.588Z,14.06
2023-01-18T16:19:29.251Z,14.06
2023-01-18T16:22:04.807Z,14.12
2023-01-18T16:24:40.232Z,14.15
2023-01-18T16:27:11.771Z,14.28
2023-01-18T16:29:41.220Z,14.25
2023-01-18T16:32:21.416Z,14.18
2023-01-18T16:34:48.835Z,14.15
2023-01-18T16:37:25.110Z,14.17
2023-01-18T16:39:56.831Z,14.11
2023-01-18T16:42:37.573Z,13.96
2023-01-18T16:45:08.232Z,13.86
2023-01-18T16:47:35.467Z,13.76
2023-01-18T16:50:05.220Z,13.91
2023-01-18T16:52:32.363Z,13.86
2023-01-18T16:54:59.497Z,13.82
2023-01-18T16:57:26.823Z,13.88
2023-01-18T16:59:53.843Z,13.93
2023-01-18T17:02:20.863Z,13.95
2023-01-18T17:04:47.889Z,13.98
2023-01-18T17:07:15.070Z,13.94
2023-01-18T17:09:48.313Z,14.03
2023-01-18T17:12:16.423Z,14.03
2023-01-18T17:14:43.534Z,14.04
2023-01-18T17:17:11.148Z,14.03
2023-01-18T17:19:38.243Z,14.04
2023-01-18T17:22:06.592Z,13.98
2023-01-18T17:24:35.774Z,13.92
2023-01-18T17:27:03.011Z,13.91
2023-01-18T17:29:30.299Z,13.91
2023-01-18T17:31:57.950Z,13.85
2023-01-18T17:34:28.313Z,13.88
2023-01-18T17:36:57.016Z,13.89
2023-01-18T17:39:31.894Z,13.90
2023-01-18T17:42:12.265Z,13.99
2023-01-18T17:44:41.638Z,13.96
2023-01-18T17:47:08.787Z,13.96
2023-01-18T17:49:36.006Z,13.99
2023-01-18T17:52:03.240Z,14.00
2023-01-18T17:54:34.199Z,13.96
2023-01-18T17:57:01.563Z,13.99
2023-01-18T17:59:30.932Z,13.98
2023-01-18T18:02:05.650Z,13.89
2023-01-18T18:04:32.780Z,13.83
2023-01-18T18:07:00.028Z,13.77
2023-01-18T18:09:29.356Z,13.71
2023-01-18T18:11:58.886Z,13.60
2023-01-18T18:14:29.664Z,13.60
2023-01-18T18:16:56.968Z,13.63
2023-01-18T18:19:25.520Z,13.61
2023-01-18T18:21:52.398Z,13.51
2023-01-18T18:24:21.636Z,13.42
2023-01-18T18:26:49.883Z,13.64
2023-01-18T18:29:17.075Z,13.63
2023-01-18T18:31:48.533Z,13.59
2023-01-18T18:34:18.514Z,13.54
2023-01-18T18:36:45.594Z,13.43
2023-01-18T18:39:12.589Z,13.60
2023-01-18T18:41:42.187Z,13.60
2023-01-18T18:44:12.785Z,13.31
2023-01-18T18:46:41.993Z,13.18
2023-01-18T18:49:09.239Z,13.01
2023-01-18T18:51:36.246Z,12.79
2023-01-18T18:54:05.164Z,12.70
2023-01-18T18:56:32.533Z,12.54
2023-01-18T18:59:03.434Z,12.48
2023-01-18T19:01:30.962Z,12.56
2023-01-18T19:03:59.267Z,12.44
2023-01-18T19:06:26.559Z,12.32
2023-01-18T19:08:57.440Z,12.21
2023-01-18T19:11:29.445Z,12.10
2023-01-18T19:13:56.951Z,12.07
2023-01-18T19:16:24.176Z,12.06
2023-01-18T19:21:32.882Z,11.90
2023-01-18T19:24:07.633Z,11.83
2023-01-18T19:26:34.867Z,11.85
2023-01-18T19:29:05.071Z,11.84
2023-01-18T19:31:32.346Z,11.92
2023-01-18T19:33:59.478Z,11.99
2023-01-18T19:36:26.677Z,12.06
2023-01-18T19:38:59.968Z,11.95
2023-01-18T19:41:31.067Z,11.80
2023-01-18T19:43:58.246Z,11.64
2023-01-18T19:46:25.324Z,11.59
2023-01-18T19:48:57.420Z,11.49
2023-01-18T19:51:24.477Z,11.44
2023-01-18T19:53:55.866Z,11.46
2023-01-18T19:56:25.829Z,11.42
2023-01-18T19:58:53.048Z,11.35
2023-01-18T20:01:35.865Z,11.26
2023-01-18T20:04:06.085Z,11.20
2023-01-18T20:06:34.008Z,11.20
2023-01-18T20:09:00.854Z,11.23
2023-01-18T20:11:27.756Z,11.20
2023-01-18T20:13:55.711Z,11.21
2023-01-18T20:16:25.602Z,11.20
2023-01-18T20:18:54.216Z,11.19
2023-01-18T20:21:21.697Z,11.07
2023-01-18T20:23:48.654Z,10.92
2023-01-18T20:26:24.607Z,10.77
2023-01-18T20:28:56.090Z,10.63
2023-01-18T20:31:23.157Z,10.56
2023-01-18T20:33:50.507Z,10.46
2023-01-18T20:36:20.722Z,10.38
2023-01-18T20:38:50.136Z,10.30
2023-01-18T20:41:17.496Z,10.29
2023-01-18T20:43:45.448Z,10.32
2023-01-18T20:46:14.943Z,10.29
2023-01-18T20:48:44.033Z,10.43
2023-01-18T20:51:11.003Z,10.89
2023-01-18T20:53:40.836Z,11.49
2023-01-18T20:56:23.370Z,11.44
2023-01-18T20:58:54.145Z,11.28
2023-01-18T21:01:23.316Z,11.23
2023-01-18T21:03:54.977Z,11.44
2023-01-18T21:06:24.840Z,12.27
2023-01-18T21:08:54.895Z,12.56
2023-01-18T21:11:29.006Z,12.75
2023-01-18T21:13:57.310Z,12.62
2023-01-18T21:16:24.656Z,12.60
2023-01-18T21:18:55.509Z,12.67
2023-01-18T21:21:23.436Z,12.77
2023-01-18T21:23:52.780Z,12.61
2023-01-18T21:26:19.878Z,12.54
2023-01-18T21:28:49.973Z,12.97
2023-01-18T21:31:17.424Z,13.05
2023-01-18T21:33:44.612Z,13.18
2023-01-18T21:36:17.744Z,13.37
2023-01-18T21:38:45.044Z,13.18
2023-01-18T21:41:33.761Z,13.08
2023-01-18T21:44:20.761Z,13.00
2023-01-18T21:46:48.661Z,12.94
2023-01-18T21:49:52.042Z,12.78
2023-01-18T21:52:39.873Z,13.26
2023-01-18T21:55:09.971Z,13.62
2023-01-18T21:57:37.751Z,13.71
2023-01-18T22:00:07.811Z,13.85
2023-01-18T22:02:35.628Z,13.86
2023-01-18T22:05:05.441Z,13.95
2023-01-18T22:07:36.584Z,14.13
2023-01-18T22:10:07.009Z,14.18
2023-01-18T22:12:36.083Z,14.23
2023-01-18T22:15:06.908Z,14.21
2023-01-18T22:17:37.842Z,14.17
2023-01-18T22:20:05.278Z,14.24
2023-01-18T22:22:32.313Z,14.23
2023-01-18T22:25:02.430Z,14.21
2023-01-18T22:27:34.420Z,14.16
2023-01-18T22:30:12.028Z,14.11
2023-01-18T22:32:39.247Z,14.17
2023-01-18T22:35:06.492Z,14.17
2023-01-18T22:37:34.817Z,14.18
2023-01-18T22:40:04.164Z,14.17
2023-01-18T22:42:31.964Z,14.12
2023-01-18T22:45:06.713Z,14.21
2023-01-18T22:47:33.676Z,14.25
2023-01-18T22:50:01.024Z,14.30
2023-01-18T22:52:27.994Z,14.33
2023-01-18T22:54:55.048Z,14.36
2023-01-18T22:57:23.302Z,14.34
2023-01-18T22:59:50.411Z,14.27
2023-01-18T23:02:18.671Z,14.29
2023-01-18T23:04:47.732Z,14.23
2023-01-18T23:07:24.268Z,14.23
2023-01-18T23:09:51.786Z,14.27
2023-01-18T23:12:19.105Z,14.24
2023-01-18T23:15:09.196Z,14.24
2023-01-18T23:17:39.095Z,14.25
2023-01-18T23:20:12.194Z,14.27
2023-01-18T23:22:41.608Z,14.20
2023-01-18T23:25:11.534Z,14.17
2023-01-18T23:27:38.592Z,14.20
2023-01-18T23:30:06.481Z,14.15
2023-01-18T23:32:33.653Z,14.11
2023-01-18T23:35:00.818Z,14.06
2023-01-18T23:37:28.042Z,14.12
2023-01-18T23:40:16.143Z,14.11
2023-01-18T23:43:03.822Z,14.09
2023-01-18T23:45:49.454Z,14.09
2023-01-18T23:48:37.339Z,14.02
2023-01-18T23:51:28.598Z,14.01
2023-01-18T23:54:13.937Z,13.97
2023-01-18T23:56:41.004Z,13.91
2023-01-18T23:59:08.649Z,13.90
